Time;durP1;ratioP1;P1;durP2;ratioP2;P2;SDS_P1;SDS_P2;PMS_P1;PMS_P2;Temp;Humidity;BMP_temperature;BMP_pressure;BME280_temperature;BME280_humidity;BME280_pressure;Samples;Min_cycle;Max_cycle;Signal;HPM_P1;HPM_P2
2023/06/10 00:00:26;;;;;;;;;15.20;15.20;;;;;27.59;40.83;100348.53;2101640;28;46393;-61
2023/06/10 00:01:27;;;;;;;;;15.00;13.75;;;;;27.59;41.04;100351.25;2090874;28;46931;-61
2023/06/10 00:02:28;;;;;;;;;16.00;15.00;;;;;27.58;40.87;100346.81;2094072;28;46916;-62
2023/06/10 00:03:28;;;;;;;;;16.25;14.50;;;;;27.59;41.24;100345.81;2097866;28;46729;-60
2023/06/10 00:04:28;;;;;;;;;12.00;11.75;;;;;27.59;40.55;100348.53;2090795;28;46745;-62
2023/06/10 00:05:32;;;;;;;;;12.75;12.00;;;;;27.59;41.16;100348.53;2092502;28;46596;-60
2023/06/10 00:06:35;;;;;;;;;11.00;10.60;;;;;27.60;40.80;100346.66;2092423;28;46847;-59
2023/06/10 00:07:40;;;;;;;;;14.60;13.40;;;;;27.60;40.72;100339.34;2090910;28;46584;-61
2023/06/10 00:08:42;;;;;;;;;15.80;15.20;;;;;27.61;40.71;100345.66;2092610;28;46539;-60
2023/06/10 00:09:42;;;;;;;;;12.60;12.60;;;;;27.61;40.62;100345.66;2108863;27;45811;-61
2023/06/10 00:10:42;;;;;;;;;14.50;14.25;;;;;27.62;41.23;100342.75;2103136;27;46696;-60
2023/06/10 00:11:43;;;;;;;;;10.25;10.25;;;;;27.62;41.18;100340.03;2088841;28;46442;-60
2023/06/10 00:12:43;;;;;;;;;13.25;12.75;;;;;27.63;40.60;100349.94;2089666;28;46738;-59
2023/06/10 00:13:44;;;;;;;;;13.25;12.75;;;;;27.65;41.00;100347.06;2088957;28;46809;-60
2023/06/10 00:14:44;;;;;;;;;13.50;13.00;;;;;27.66;41.07;100341.47;2092693;28;46637;-60
2023/06/10 00:15:45;;;;;;;;;13.75;13.25;;;;;27.67;41.41;100347.78;2089359;28;46463;-60
2023/06/10 00:16:45;;;;;;;;;10.50;10.50;;;;;27.66;40.84;100340.63;2089227;28;46291;-60
2023/06/10 00:17:45;;;;;;;;;14.75;14.25;;;;;27.65;40.71;100338.91;2091999;28;46560;-60
2023/06/10 00:18:46;;;;;;;;;14.25;14.25;;;;;27.66;40.99;100338.75;2088132;28;46724;-58
2023/06/10 00:19:47;;;;;;;;;13.20;11.80;;;;;27.66;41.19;100346.91;2091508;28;46561;-62
2023/06/10 00:20:48;;;;;;;;;14.75;14.75;;;;;27.64;41.06;100346.22;2088916;28;46608;-62
2023/06/10 00:21:50;;;;;;;;;10.00;10.00;;;;;27.63;41.16;100349.94;2092599;28;46351;-60
2023/06/10 00:22:52;;;;;;;;;15.00;14.20;;;;;27.64;41.02;100351.69;2092776;28;46589;-60
2023/06/10 00:23:52;;;;;;;;;14.80;14.80;;;;;27.65;41.65;100347.06;2089429;28;47047;-61
2023/06/10 00:24:52;;;;;;;;;14.25;13.75;;;;;27.64;41.57;100348.94;2092349;28;46469;-61
2023/06/10 00:25:53;;;;;;;;;13.25;13.25;;;;;27.64;41.58;100345.34;2094496;28;46433;-62
2023/06/10 00:26:53;;;;;;;;;16.25;14.75;;;;;27.65;40.90;100352.53;2089719;28;46216;-60
2023/06/10 00:27:53;;;;;;;;;13.75;13.75;;;;;27.64;41.37;100346.22;2089411;28;47247;-60
2023/06/10 00:28:54;;;;;;;;;14.00;14.00;;;;;27.64;40.96;100343.50;2094788;28;46533;-60
2023/06/10 00:29:54;;;;;;;;;14.50;14.50;;;;;27.64;41.19;100339.88;2092847;28;46724;-60
2023/06/10 00:30:54;;;;;;;;;12.00;11.75;;;;;27.64;41.13;100345.34;2091473;28;46078;-61
2023/06/10 00:31:57;;;;;;;;;13.00;13.00;;;;;27.63;41.27;100349.94;2089594;28;46255;-60
2023/06/10 00:32:57;;;;;;;;;16.60;16.60;;;;;27.63;41.39;100349.94;2092451;28;46572;-61
2023/06/10 00:33:58;;;;;;;;;15.75;15.75;;;;;27.63;41.49;100347.19;2089241;28;46903;-61
2023/06/10 00:34:59;;;;;;;;;15.00;14.20;;;;;27.63;41.58;100347.19;2093819;28;47312;-61
2023/06/10 00:35:59;;;;;;;;;15.25;12.50;;;;;27.64;40.98;100350.78;2089288;28;46569;-62
2023/06/10 00:36:59;;;;;;;;;14.50;14.50;;;;;27.63;41.07;100354.53;2093611;28;46452;-61
2023/06/10 00:38:00;;;;;;;;;15.00;15.00;;;;;27.63;41.50;100355.38;2092782;28;46651;-62
2023/06/10 00:39:00;;;;;;;;;14.50;12.25;;;;;27.63;41.77;100358.09;2086805;28;45863;-63
2023/06/10 00:40:05;;;;;;;;;12.75;12.75;;;;;27.64;41.50;100358.97;2074048;28;46852;-62
2023/06/10 00:41:05;;;;;;;;;15.40;15.40;;;;;27.62;41.16;100364.56;2084155;28;46311;-62
2023/06/10 00:42:07;;;;;;;;;14.25;12.25;;;;;27.62;41.87;100355.53;2088204;28;45502;-60
2023/06/10 00:43:07;;;;;;;;;14.40;13.60;;;;;27.62;41.96;100359.13;2090604;28;46429;-61
2023/06/10 00:44:08;;;;;;;;;13.50;13.50;;;;;27.59;41.76;100364.88;2097838;28;46813;-60
2023/06/10 00:45:08;;;;;;;;;13.50;13.50;;;;;27.59;41.60;100358.56;2089882;28;46267;-61
2023/06/10 00:46:11;;;;;;;;;12.25;12.25;;;;;27.58;41.55;100363.16;2090539;28;46492;-61
2023/06/10 00:47:12;;;;;;;;;14.40;13.80;;;;;27.58;41.70;100365.03;2090551;28;46169;-62
2023/06/10 00:48:12;;;;;;;;;16.75;16.75;;;;;27.56;41.90;100360.56;2090563;28;46405;-61
2023/06/10 00:49:13;;;;;;;;;12.00;11.25;;;;;27.56;41.80;100366.00;2091058;28;46856;-57
2023/06/10 00:50:14;;;;;;;;;13.25;13.25;;;;;27.56;41.53;100357.84;2089344;28;46376;-60
2023/06/10 00:51:16;;;;;;;;;13.00;13.00;;;;;27.55;41.63;100367.03;2108228;27;46493;-62
2023/06/10 00:52:19;;;;;;;;;14.40;14.40;;;;;27.54;41.85;100368.03;2100596;27;46318;-60
2023/06/10 00:53:21;;;;;;;;;16.40;15.20;;;;;27.53;41.71;100368.19;2088722;28;46246;-61
2023/06/10 00:54:22;;;;;;;;;13.80;13.80;;;;;27.53;41.98;100365.47;2092503;28;47274;-61
2023/06/10 00:55:23;;;;;;;;;14.75;14.75;;;;;27.53;42.29;100360.88;2088368;28;46560;-60
2023/06/10 00:56:25;;;;;;;;;12.25;12.25;;;;;27.52;41.95;100364.63;2088177;28;46900;-61
2023/06/10 00:57:26;;;;;;;;;15.80;13.80;;;;;27.52;41.93;100372.78;2106937;27;47095;-60
2023/06/10 00:58:27;;;;;;;;;13.40;13.40;;;;;27.50;42.15;100368.50;2098211;28;46294;-60
2023/06/10 00:59:30;;;;;;;;;14.75;14.50;;;;;27.47;42.16;100361.50;2087730;28;46647;-61
2023/06/10 01:00:31;;;;;;;;;13.60;13.40;;;;;27.46;41.81;100372.56;2086706;28;46676;-62
2023/06/10 01:01:32;;;;;;;;;14.50;14.50;;;;;27.44;41.84;100371.81;2095853;28;46627;-59
2023/06/10 01:02:32;;;;;;;;;9.75;9.75;;;;;27.43;42.55;100367.38;2093567;28;46481;-61
2023/06/10 01:03:36;;;;;;;;;14.75;14.00;;;;;27.41;42.03;100367.53;2087279;28;46548;-59
2023/06/10 01:04:37;;;;;;;;;12.00;12.00;;;;;27.40;42.10;100368.53;2094293;28;46711;-61
2023/06/10 01:05:41;;;;;;;;;12.25;12.25;;;;;27.40;42.12;100364.97;2095524;28;46642;-60
2023/06/10 01:06:59;;;;;;;;;15.00;12.60;;;;;27.39;41.92;100369.56;2093665;28;47003;-61
2023/06/10 01:08:15;;;;;;;;;11.60;11.60;;;;;27.39;42.32;100368.69;2092002;28;46506;-60
2023/06/10 01:09:28;;;;;;;;;12.80;11.00;;;;;27.38;42.39;100373.28;2093187;28;46831;-61
2023/06/10 01:10:35;;;;;;;;;11.00;11.00;;;;;27.36;42.54;100364.41;2082554;28;46756;-60
2023/06/10 01:11:54;;;;;;;;;13.20;11.80;;;;;27.36;42.65;100369.84;2091216;28;46599;-61
2023/06/10 01:13:06;;;;;;;;;12.60;12.60;;;;;27.34;42.56;100362.84;2088967;28;46659;-61
2023/06/10 01:14:08;;;;;;;;;14.80;14.20;;;;;27.33;42.81;100361.13;2094089;28;46819;-60
2023/06/10 01:15:09;;;;;;;;;13.00;12.20;;;;;27.33;42.19;100372.03;2093862;28;45655;-61
2023/06/10 01:16:11;;;;;;;;;11.00;10.80;;;;;27.31;42.55;100365.84;2092374;28;45382;-62
2023/06/10 01:17:11;;;;;;;;;9.60;9.60;;;;;27.32;42.42;100367.59;2096412;28;46984;-61
2023/06/10 01:18:14;;;;;;;;;9.25;9.25;;;;;27.32;42.17;100364.88;2092535;28;46581;-61
2023/06/10 01:19:17;;;;;;;;;12.20;11.20;;;;;27.32;42.76;100360.28;2093452;28;46954;-61
2023/06/10 01:20:17;;;;;;;;;12.00;12.00;;;;;27.33;42.22;100366.59;2112186;27;47147;-58
2023/06/10 01:21:24;;;;;;;;;12.25;12.25;;;;;27.34;42.52;100366.44;2104450;27;46655;-61
2023/06/10 01:22:28;;;;;;;;;12.20;11.80;;;;;27.34;42.59;100368.28;2090840;28;46407;-59
2023/06/10 01:23:28;;;;;;;;;13.60;11.80;;;;;27.34;42.46;100369.16;2091960;28;46352;-62
2023/06/10 01:24:32;;;;;;;;;11.25;10.25;;;;;27.35;42.42;100367.28;2093474;28;46683;-60
2023/06/10 01:25:36;;;;;;;;;11.00;11.00;;;;;27.33;42.89;100363.84;2090428;28;47315;-61
2023/06/10 01:26:37;;;;;;;;;10.80;10.80;;;;;27.32;42.37;100363.00;2088225;28;46841;-60
2023/06/10 01:27:39;;;;;;;;;9.60;9.60;;;;;27.32;42.76;100368.44;2092463;28;47362;-60
2023/06/10 01:28:49;;;;;;;;;9.40;9.40;;;;;27.31;42.67;100366.69;2088236;28;46891;-61
2023/06/10 01:30:06;;;;;;;;;10.40;10.40;;;;;27.31;42.85;100368.56;2092853;28;46966;-62
2023/06/10 01:31:13;;;;;;;;;10.80;10.80;;;;;27.30;42.95;100365.00;2093120;28;47348;-60
2023/06/10 01:32:40;;;;;;;;;12.00;11.60;;;;;27.33;42.51;100363.84;2077100;28;46533;-60
2023/06/10 01:33:48;;;;;;;;;13.20;12.40;;;;;27.33;42.62;100361.13;2083975;28;46612;-60
2023/06/10 01:34:49;;;;;;;;;13.80;12.60;;;;;27.32;42.69;100359.41;2090136;28;46528;-62
2023/06/10 01:35:51;;;;;;;;;11.40;10.40;;;;;27.30;42.41;100362.25;2090791;28;46425;-60
2023/06/10 01:36:52;;;;;;;;;9.40;9.40;;;;;27.30;42.83;100361.41;2095739;28;46499;-62
2023/06/10 01:37:54;;;;;;;;;10.00;9.60;;;;;27.29;42.77;100360.56;2091205;28;46948;-62
2023/06/10 01:38:56;;;;;;;;;10.60;10.60;;;;;27.28;43.09;100370.59;2089728;28;46736;-61
2023/06/10 01:39:58;;;;;;;;;10.00;10.00;;;;;27.27;42.99;100363.44;2092816;28;47380;-61
2023/06/10 01:41:00;;;;;;;;;10.80;10.80;;;;;27.29;43.17;100366.00;2094519;28;46959;-60
2023/06/10 01:42:02;;;;;;;;;8.60;8.40;;;;;27.28;42.98;100365.13;2087400;28;46881;-60
2023/06/10 01:43:02;;;;;;;;;8.80;8.80;;;;;27.28;42.38;100364.28;2092784;28;46740;-59
2023/06/10 01:44:03;;;;;;;;;9.50;9.50;;;;;27.28;43.12;100367.00;2094114;28;46883;-60
2023/06/10 01:45:04;;;;;;;;;10.50;9.50;;;;;27.27;42.90;100373.47;2095840;28;46660;-57
2023/06/10 01:46:05;;;;;;;;;8.00;8.00;;;;;27.25;43.27;100373.63;2093746;28;46616;-60
2023/06/10 01:47:06;;;;;;;;;11.00;11.00;;;;;27.25;43.17;100370.91;2106652;27;46457;-62
2023/06/10 01:48:06;;;;;;;;;9.00;9.00;;;;;27.23;43.00;100370.19;2099231;28;46194;-60
2023/06/10 01:49:06;;;;;;;;;8.50;8.50;;;;;27.23;43.07;100370.19;2087776;28;46322;-59
2023/06/10 01:50:07;;;;;;;;;10.00;10.00;;;;;27.22;43.29;100373.06;2094148;28;46462;-61
2023/06/10 01:51:08;;;;;;;;;8.75;7.00;;;;;27.21;43.06;100374.94;2101590;28;46204;-61
2023/06/10 01:52:08;;;;;;;;;10.00;8.00;;;;;27.21;42.90;100384.97;2103164;28;46843;-62
2023/06/10 01:53:09;;;;;;;;;9.00;9.00;;;;;27.21;42.83;100376.81;2094495;28;46563;-61
2023/06/10 01:54:10;;;;;;;;;9.00;9.00;;;;;27.20;42.80;100378.66;2094206;28;46271;-61
2023/06/10 01:55:10;;;;;;;;;9.75;9.75;;;;;27.19;43.25;100382.41;2094159;28;45804;-62
2023/06/10 01:56:16;;;;;;;;;10.25;10.25;;;;;27.18;43.24;100382.53;2092074;28;46292;-60
2023/06/10 01:57:16;;;;;;;;;9.40;9.40;;;;;27.17;43.31;100380.81;2095738;28;45140;-61
2023/06/10 01:58:17;;;;;;;;;8.50;8.50;;;;;27.16;43.00;100381.81;2088214;28;46509;-60
2023/06/10 01:59:17;;;;;;;;;10.25;10.25;;;;;27.15;43.51;100380.09;2088850;28;46572;-59
2023/06/10 02:00:18;;;;;;;;;10.00;8.00;;;;;27.13;43.22;100385.69;2090118;28;46240;-61
2023/06/10 02:01:18;;;;;;;;;8.50;8.50;;;;;27.14;43.00;100384.69;2091286;28;46270;-60
2023/06/10 02:02:18;;;;;;;;;9.75;8.00;;;;;27.14;43.23;100381.97;2091109;28;46716;-58
2023/06/10 02:03:19;;;;;;;;;9.50;9.00;;;;;27.12;43.74;100381.25;2095103;28;45019;-63
2023/06/10 02:04:19;;;;;;;;;8.75;8.25;;;;;27.12;43.12;100383.13;2092014;28;46293;-61
2023/06/10 02:05:20;;;;;;;;;10.50;10.50;;;;;27.11;43.43;100385.00;2096043;28;46771;-61
2023/06/10 02:06:20;;;;;;;;;9.00;9.00;;;;;27.11;43.01;100384.13;2091612;28;46661;-60
2023/06/10 02:07:20;;;;;;;;;9.75;9.50;;;;;27.10;43.26;100385.16;2086226;28;46214;-61
2023/06/10 02:08:21;;;;;;;;;10.25;10.25;;;;;27.09;43.08;100386.16;2092721;28;46665;-59
2023/06/10 02:09:22;;;;;;;;;9.25;9.00;;;;;27.09;43.54;100386.16;2092268;28;45656;-62
2023/06/10 02:10:23;;;;;;;;;9.80;9.80;;;;;27.08;43.89;100387.16;2080126;28;46616;-60
2023/06/10 02:11:23;;;;;;;;;8.00;8.00;;;;;27.06;43.86;100379.16;2088394;28;46552;-61
2023/06/10 02:12:23;;;;;;;;;10.75;10.75;;;;;27.06;43.17;100386.44;2089667;28;46975;-61
2023/06/10 02:13:23;;;;;;;;;7.50;7.50;;;;;27.07;43.58;100385.44;2096835;28;46383;-60
2023/06/10 02:14:24;;;;;;;;;7.25;7.25;;;;;27.05;43.30;100382.00;2091130;28;46390;-61
2023/06/10 02:15:24;;;;;;;;;10.00;10.00;;;;;27.03;43.34;100387.59;2096236;28;46435;-61
2023/06/10 02:16:26;;;;;;;;;9.00;9.00;;;;;27.02;43.51;100385.88;2081542;28;46300;-62
2023/06/10 02:17:26;;;;;;;;;9.80;9.80;;;;;27.02;43.73;100385.88;2079775;28;46353;-62
2023/06/10 02:18:28;;;;;;;;;7.75;7.75;;;;;27.01;43.81;100381.44;2094468;28;46281;-61
2023/06/10 02:19:28;;;;;;;;;7.60;7.60;;;;;27.01;43.33;100386.00;2092735;28;45826;-61
2023/06/10 02:20:28;;;;;;;;;8.75;8.75;;;;;26.99;43.47;100388.88;2088672;28;46789;-61
2023/06/10 02:21:29;;;;;;;;;6.50;6.50;;;;;26.98;44.01;100382.56;2091798;28;46912;-60
2023/06/10 02:22:29;;;;;;;;;7.75;7.75;;;;;26.97;43.68;100383.56;2090262;28;46564;-62
2023/06/10 02:23:29;;;;;;;;;8.25;8.25;;;;;26.96;44.03;100381.84;2089583;28;46026;-61
2023/06/10 02:24:29;;;;;;;;;8.50;8.50;;;;;26.96;44.02;100381.84;2093716;28;46402;-62
2023/06/10 02:25:30;;;;;;;;;7.50;7.50;;;;;26.96;43.64;100383.72;2090476;28;46239;-61
2023/06/10 02:26:30;;;;;;;;;9.75;8.75;;;;;26.96;43.38;100379.13;2091340;28;45115;-61
2023/06/10 02:27:31;;;;;;;;;8.50;8.50;;;;;26.96;44.06;100383.72;2093079;28;46140;-59
2023/06/10 02:28:31;;;;;;;;;9.00;9.00;;;;;26.94;44.03;100383.88;2091075;28;47081;-60
2023/06/10 02:29:33;;;;;;;;;9.00;9.00;;;;;26.94;43.84;100383.00;2093524;28;45841;-61
2023/06/10 02:30:34;;;;;;;;;8.00;8.00;;;;;26.94;43.71;100386.59;2088021;28;46686;-59
2023/06/10 02:31:35;;;;;;;;;9.00;9.00;;;;;26.95;43.58;100387.44;2091687;28;46569;-62
2023/06/10 02:32:35;;;;;;;;;11.00;9.50;;;;;26.94;43.71;100389.31;2091689;28;46034;-60
2023/06/10 02:33:39;;;;;;;;;7.25;7.25;;;;;26.94;43.89;100386.59;2091687;28;46984;-61
2023/06/10 02:34:40;;;;;;;;;11.00;10.00;;;;;26.95;43.45;100387.44;2089111;28;46425;-61
2023/06/10 02:35:41;;;;;;;;;12.00;9.50;;;;;26.95;44.45;100392.91;2093686;28;46191;-60
2023/06/10 02:36:41;;;;;;;;;8.50;8.00;;;;;26.95;43.68;100390.16;2092647;28;46268;-61
2023/06/10 02:37:41;;;;;;;;;6.50;6.50;;;;;26.94;44.03;100385.72;2094662;28;46486;-62
2023/06/10 02:38:42;;;;;;;;;9.00;8.75;;;;;26.94;43.70;100385.72;2093486;28;46813;-59
2023/06/10 02:39:42;;;;;;;;;9.75;9.50;;;;;26.94;43.76;100385.72;2094081;28;45624;-61
2023/06/10 02:40:42;;;;;;;;;9.00;8.00;;;;;26.94;43.84;100391.19;2093112;28;46260;-61
2023/06/10 02:41:43;;;;;;;;;9.00;9.00;;;;;26.92;43.62;100391.28;2089855;28;46409;-59
2023/06/10 02:42:43;;;;;;;;;10.00;9.00;;;;;26.91;43.97;100389.59;2095277;28;46691;-59
2023/06/10 02:43:43;;;;;;;;;10.25;8.75;;;;;26.91;44.42;100392.31;2092262;28;46315;-60
2023/06/10 02:44:43;;;;;;;;;9.25;9.25;;;;;26.90;43.68;100387.00;2094684;28;46616;-61
2023/06/10 02:45:44;;;;;;;;;9.00;9.00;;;;;26.89;43.74;100388.00;2095627;28;46664;-60
2023/06/10 02:46:45;;;;;;;;;10.75;10.00;;;;;26.89;43.69;100385.28;2095474;28;46260;-61
2023/06/10 02:47:45;;;;;;;;;9.00;8.00;;;;;26.88;44.02;100387.16;2092768;28;46170;-61
2023/06/10 02:48:46;;;;;;;;;7.00;6.25;;;;;26.88;43.67;100392.59;2096372;28;46658;-61
2023/06/10 02:49:46;;;;;;;;;6.50;6.50;;;;;26.86;43.64;100388.31;2093403;28;45840;-61
2023/06/10 02:50:46;;;;;;;;;7.00;7.00;;;;;26.87;43.84;100390.03;2095722;28;45729;-62
2023/06/10 02:51:47;;;;;;;;;8.75;8.00;;;;;26.86;44.16;100385.59;2094995;28;46154;-62
2023/06/10 02:52:47;;;;;;;;;8.75;8.75;;;;;26.85;43.92;100382.00;2093016;28;46311;-61
2023/06/10 02:53:47;;;;;;;;;9.00;9.00;;;;;26.85;43.67;100392.03;2097337;28;46615;-60
2023/06/10 02:54:48;;;;;;;;;6.50;6.50;;;;;26.84;43.76;100393.91;2092613;28;46482;-61
2023/06/10 02:55:48;;;;;;;;;12.50;10.25;;;;;26.83;43.98;100385.91;2094609;28;46434;-60
2023/06/10 02:56:48;;;;;;;;;9.50;6.50;;;;;26.79;43.74;100396.19;2095069;28;45429;-60
2023/06/10 02:57:49;;;;;;;;;8.00;8.00;;;;;26.78;43.92;100396.34;2091029;28;46547;-60
2023/06/10 02:58:51;;;;;;;;;8.25;7.50;;;;;26.75;44.57;100396.63;2090702;28;46749;-61
2023/06/10 02:59:53;;;;;;;;;11.20;9.40;;;;;26.73;44.08;100393.22;2094090;28;46952;-62
2023/06/10 03:00:53;;;;;;;;;8.80;7.80;;;;;26.69;44.04;100401.66;2095584;28;46374;-61
2023/06/10 03:01:54;;;;;;;;;8.75;8.75;;;;;26.66;43.88;100391.03;2093355;28;46403;-62
2023/06/10 03:02:57;;;;;;;;;8.75;8.75;;;;;26.62;44.86;100391.50;2091441;28;45784;-61
2023/06/10 03:03:58;;;;;;;;;9.00;8.80;;;;;26.58;44.92;100398.25;2095302;28;46388;-60
2023/06/10 03:04:59;;;;;;;;;8.60;8.20;;;;;26.56;44.72;100394.81;2096640;28;46389;-62
2023/06/10 03:05:59;;;;;;;;;7.50;7.25;;;;;26.53;44.56;100392.34;2094606;28;46362;-61
2023/06/10 03:07:03;;;;;;;;;7.25;7.25;;;;;26.51;44.90;100395.22;2087283;28;46466;-62
2023/06/10 03:08:04;;;;;;;;;6.80;6.80;;;;;26.51;44.36;100392.50;2090924;28;46774;-61
2023/06/10 03:09:04;;;;;;;;;7.25;7.25;;;;;26.53;44.61;100389.63;2089829;28;46164;-62
2023/06/10 03:10:06;;;;;;;;;9.75;9.75;;;;;26.53;44.43;100395.06;2098510;28;46467;-61
2023/06/10 03:11:06;;;;;;;;;7.00;7.00;;;;;26.52;44.74;100398.78;2099194;28;46719;-62
2023/06/10 03:12:07;;;;;;;;;8.75;8.75;;;;;26.52;44.88;100396.94;2094350;28;46764;-62
2023/06/10 03:13:09;;;;;;;;;7.80;7.80;;;;;26.52;44.51;100396.94;2070993;28;45736;-59
2023/06/10 03:14:10;;;;;;;;;7.40;6.60;;;;;26.53;44.39;100392.34;2071959;28;46439;-61
2023/06/10 03:15:10;;;;;;;;;10.75;9.25;;;;;26.54;44.62;100397.66;2094701;28;46840;-61
2023/06/10 03:16:12;;;;;;;;;9.00;7.50;;;;;26.55;44.38;100401.22;2094283;28;45531;-60
2023/06/10 03:17:12;;;;;;;;;6.80;6.80;;;;;26.55;44.50;100403.94;2092371;28;47261;-60
2023/06/10 03:18:13;;;;;;;;;9.00;8.25;;;;;26.55;44.28;100401.22;2095775;28;46327;-61
2023/06/10 03:19:13;;;;;;;;;8.50;7.50;;;;;26.54;44.25;100411.25;2091606;28;46703;-60
2023/06/10 03:20:15;;;;;;;;;10.00;10.00;;;;;26.53;44.42;100397.78;2092322;28;46654;-60
2023/06/10 03:21:15;;;;;;;;;7.20;7.20;;;;;26.50;44.36;100398.94;2082758;28;46793;-61
2023/06/10 03:22:16;;;;;;;;;6.00;6.00;;;;;26.47;44.95;100401.97;2080966;28;46797;-61
2023/06/10 03:23:18;;;;;;;;;8.80;8.80;;;;;26.47;44.37;100403.81;2093627;28;46615;-61
2023/06/10 03:24:18;;;;;;;;;8.60;8.40;;;;;26.47;45.07;100403.81;2092355;28;46932;-62
2023/06/10 03:25:20;;;;;;;;;7.25;7.00;;;;;26.46;45.00;100397.53;2090859;28;46719;-61
2023/06/10 03:26:21;;;;;;;;;4.60;4.60;;;;;26.46;45.16;100405.69;2094910;28;46893;-60
2023/06/10 03:27:21;;;;;;;;;8.40;8.40;;;;;26.45;44.62;100403.09;2089468;28;45973;-58
2023/06/10 03:28:22;;;;;;;;;11.00;8.75;;;;;26.43;44.66;100405.97;2091786;28;45876;-62
2023/06/10 03:29:22;;;;;;;;;8.75;8.75;;;;;26.43;44.96;100407.84;2092705;28;46447;-60
2023/06/10 03:30:22;;;;;;;;;5.75;5.75;;;;;26.40;45.03;100407.09;2089598;28;46663;-61
2023/06/10 03:31:24;;;;;;;;;7.50;7.50;;;;;26.37;45.13;100403.81;2092983;28;46325;-62
2023/06/10 03:32:25;;;;;;;;;7.80;7.40;;;;;26.33;45.26;100405.94;2091272;28;46438;-59
2023/06/10 03:33:26;;;;;;;;;7.40;6.00;;;;;26.29;44.96;100409.91;2096664;28;45845;-62
2023/06/10 03:34:26;;;;;;;;;8.00;8.00;;;;;26.28;45.38;100408.19;2101374;28;46690;-60
2023/06/10 03:35:26;;;;;;;;;8.75;8.25;;;;;26.27;45.24;100402.91;2104785;28;45675;-62
2023/06/10 03:36:29;;;;;;;;;6.00;6.00;;;;;26.28;45.32;100399.19;2095587;28;46330;-61
2023/06/10 03:37:29;;;;;;;;;6.00;6.00;;;;;26.28;44.84;100400.03;2095043;28;46279;-59
2023/06/10 03:38:29;;;;;;;;;7.75;7.75;;;;;26.29;45.38;100398.19;2091015;28;46707;-60
2023/06/10 03:39:30;;;;;;;;;7.50;7.00;;;;;26.28;45.09;100400.03;2091669;28;46297;-59
2023/06/10 03:40:31;;;;;;;;;7.75;7.75;;;;;26.30;44.87;100405.38;2092137;28;46348;-60
2023/06/10 03:41:32;;;;;;;;;8.20;6.00;;;;;26.31;44.93;100401.63;2092019;28;46848;-59
2023/06/10 03:42:32;;;;;;;;;8.75;8.75;;;;;26.33;44.80;100402.34;2089569;28;46714;-61
2023/06/10 03:43:32;;;;;;;;;8.50;8.50;;;;;26.32;44.72;100400.63;2088965;28;46105;-61
2023/06/10 03:44:33;;;;;;;;;7.00;6.75;;;;;26.32;44.85;100396.06;2092726;28;46318;-60
2023/06/10 03:45:34;;;;;;;;;6.60;6.60;;;;;26.32;45.29;100398.78;2090064;28;46631;-59
2023/06/10 03:46:34;;;;;;;;;9.75;9.75;;;;;26.31;44.76;100393.47;2092751;28;46404;-60
2023/06/10 03:47:35;;;;;;;;;7.25;7.25;;;;;26.31;44.94;100398.91;2092736;28;46262;-61
2023/06/10 03:48:37;;;;;;;;;9.00;9.00;;;;;26.29;44.75;100399.03;2088908;28;46924;-59
2023/06/10 03:49:37;;;;;;;;;8.80;7.60;;;;;26.28;44.83;100402.75;2092254;28;46457;-59
2023/06/10 03:50:37;;;;;;;;;7.50;6.00;;;;;26.28;45.04;100402.75;2095015;28;46269;-58
2023/06/10 03:51:38;;;;;;;;;7.00;7.00;;;;;26.28;44.65;100408.19;2091759;28;46143;-60
2023/06/10 03:52:39;;;;;;;;;7.75;7.75;;;;;26.28;44.91;100410.91;2091853;28;46432;-59
2023/06/10 03:53:39;;;;;;;;;8.00;7.40;;;;;26.28;45.13;100405.47;2088834;28;45952;-61
2023/06/10 03:54:40;;;;;;;;;6.00;6.00;;;;;26.27;45.13;100403.75;2092564;28;47127;-62
2023/06/10 03:55:40;;;;;;;;;7.00;7.00;;;;;26.26;44.70;100414.78;2094246;28;46705;-61
2023/06/10 03:56:41;;;;;;;;;11.00;9.00;;;;;26.26;45.41;100406.63;2088718;28;46456;-57
2023/06/10 03:57:41;;;;;;;;;5.25;5.00;;;;;26.24;45.01;100403.19;2090752;28;46144;-61
2023/06/10 03:58:42;;;;;;;;;7.00;7.00;;;;;26.24;44.84;100411.34;2083094;28;46366;-61
2023/06/10 03:59:42;;;;;;;;;9.75;9.25;;;;;26.22;45.40;100407.91;2091665;28;46801;-63
2023/06/10 04:00:42;;;;;;;;;8.00;8.00;;;;;26.19;45.08;100406.34;2092430;28;46810;-62
2023/06/10 04:01:43;;;;;;;;;7.25;7.25;;;;;26.18;45.17;100411.94;2095962;28;46387;-60
2023/06/10 04:02:49;;;;;;;;;7.60;7.60;;;;;26.15;44.97;100412.19;2095196;28;46801;-60
2023/06/10 04:03:51;;;;;;;;;8.20;8.20;;;;;26.10;44.98;100413.47;2092008;28;46894;-61
2023/06/10 04:04:51;;;;;;;;;7.00;6.80;;;;;26.06;45.26;100405.75;2095765;28;46445;-63
2023/06/10 04:05:51;;;;;;;;;6.50;6.50;;;;;26.05;45.06;100407.63;2094629;28;46242;-60
2023/06/10 04:06:52;;;;;;;;;6.75;6.75;;;;;26.05;45.71;100409.47;2091910;28;46879;-58
2023/06/10 04:07:53;;;;;;;;;8.50;8.50;;;;;26.04;45.23;100414.06;2091737;28;46497;-60
2023/06/10 04:08:53;;;;;;;;;8.25;8.25;;;;;26.04;45.72;100407.72;2094774;28;46235;-60
2023/06/10 04:09:54;;;;;;;;;7.50;7.50;;;;;26.03;45.19;100409.59;2092209;28;46342;-59
2023/06/10 04:10:54;;;;;;;;;6.00;6.00;;;;;26.02;45.44;100409.72;2090694;28;46568;-62
2023/06/10 04:11:54;;;;;;;;;7.00;7.00;;;;;25.98;45.84;100411.03;2090845;28;46782;-59
2023/06/10 04:12:55;;;;;;;;;5.75;5.75;;;;;25.96;45.23;100424.75;2092881;28;46637;-59
2023/06/10 04:13:55;;;;;;;;;9.00;7.25;;;;;25.95;46.08;100422.19;2088998;28;46459;-59
2023/06/10 04:14:55;;;;;;;;;7.00;7.00;;;;;25.95;45.62;100423.03;2093095;28;46634;-60
2023/06/10 04:15:56;;;;;;;;;6.00;5.50;;;;;25.95;45.25;100419.47;2091717;28;46747;-60
2023/06/10 04:16:56;;;;;;;;;4.75;4.75;;;;;25.96;46.17;100421.19;2098710;28;46473;-60
2023/06/10 04:17:56;;;;;;;;;7.00;7.00;;;;;25.97;45.33;100421.03;2100271;28;45458;-60
2023/06/10 04:18:58;;;;;;;;;7.00;7.00;;;;;25.99;45.49;100418.19;2095626;28;46800;-60
2023/06/10 04:19:59;;;;;;;;;6.40;6.40;;;;;26.00;46.01;100419.91;2095305;28;46609;-58
2023/06/10 04:20:59;;;;;;;;;8.50;8.25;;;;;26.03;45.58;100425.03;2095468;28;46103;-62
2023/06/10 04:22:03;;;;;;;;;6.00;6.00;;;;;26.04;45.57;100421.31;2096372;28;46904;-59
2023/06/10 04:23:04;;;;;;;;;7.60;7.00;;;;;26.05;45.26;100415.78;2097573;28;46542;-61
2023/06/10 04:24:04;;;;;;;;;8.50;7.00;;;;;26.06;45.92;100419.34;2091664;28;45076;-60
2023/06/10 04:25:05;;;;;;;;;3.75;3.75;;;;;26.06;45.26;100417.50;2089742;28;46167;-62
2023/06/10 04:26:06;;;;;;;;;7.75;7.00;;;;;26.08;45.25;100425.50;2100065;28;46470;-60
2023/06/10 04:27:06;;;;;;;;;7.00;6.25;;;;;26.09;45.20;100419.06;2088913;28;46342;-61
2023/06/10 04:28:06;;;;;;;;;7.25;7.25;;;;;26.11;45.58;100427.94;2091972;28;46561;-59
2023/06/10 04:29:07;;;;;;;;;9.00;8.00;;;;;26.11;45.21;100426.06;2091253;28;46337;-62
2023/06/10 04:30:07;;;;;;;;;5.25;5.25;;;;;26.13;45.39;100433.22;2091555;28;45773;-58
2023/06/10 04:31:07;;;;;;;;;7.75;7.75;;;;;26.14;45.40;100432.22;2091386;28;45084;-61
2023/06/10 04:32:08;;;;;;;;;7.00;7.00;;;;;26.14;45.26;100438.53;2089193;28;46150;-60
2023/06/10 04:33:09;;;;;;;;;6.75;6.75;;;;;26.13;45.90;100438.66;2091539;28;46395;-60
2023/06/10 04:34:09;;;;;;;;;8.25;8.25;;;;;26.13;45.56;100438.66;2090492;28;46307;-60
2023/06/10 04:35:12;;;;;;;;;8.00;8.00;;;;;26.14;45.25;100434.94;2090725;28;46611;-59
2023/06/10 04:36:14;;;;;;;;;6.00;6.00;;;;;26.14;45.45;100434.94;2092062;28;46798;-57
2023/06/10 04:37:14;;;;;;;;;5.00;5.00;;;;;26.14;45.62;100437.66;2074522;28;46276;-59
2023/06/10 04:38:15;;;;;;;;;7.00;7.00;;;;;26.15;45.61;100436.66;2083129;28;46480;-60
2023/06/10 04:39:16;;;;;;;;;7.50;7.50;;;;;26.16;45.91;100446.53;2082737;28;45555;-62
2023/06/10 04:40:17;;;;;;;;;6.60;6.60;;;;;26.14;45.78;100433.09;2088709;28;46865;-61
2023/06/10 04:41:17;;;;;;;;;6.00;4.75;;;;;26.14;45.74;100437.66;2091481;28;46739;-60
2023/06/10 04:42:18;;;;;;;;;8.00;7.75;;;;;26.12;45.52;100440.53;2089052;28;46613;-61
2023/06/10 04:43:18;;;;;;;;;8.50;8.00;;;;;26.10;45.47;100447.97;2092483;28;45227;-60